Fair Bluff, North Carolina
Current Conditions -  °F | °C
As of 6:15 PM on Tuesday 25 Nov 2014 (Local Time) from KCPC Reporting Station
Haze Haze  
Wind Chill: 63°   Ceiling: 9500
Heat Index: 63°   Visibility: 4mi
Dew Point: 61°   Wind: 0mph
Humidity: 94%   Direction: NA
Pressure: 30.03"   Gusts: NA
Location:  34.31°N, 79.04°W
Report Text: KCPC 252315Z AUTO 00000KT 4SM BR SCT003 SCT006 OVC095 17/16 A3003 RMK AO2
Loading
Personal Weather Stations






























Interactive Weather Map New forecast layout! Learn more

10-Day Weather Forecast

Advertisements
Track Severe Weather on mobile